createdAt,value
2023-10-15T00:00:19.350Z,100.00
2023-10-15T00:02:48.314Z,100.00
2023-10-15T00:05:17.414Z,100.00
2023-10-15T00:07:45.490Z,100.00
2023-10-15T00:10:16.094Z,100.00
2023-10-15T00:12:45.296Z,100.00
2023-10-15T00:15:20.383Z,100.00
2023-10-15T00:17:48.881Z,100.00
2023-10-15T00:20:18.351Z,100.00
2023-10-15T00:22:46.547Z,100.00
2023-10-15T00:25:16.512Z,100.00
2023-10-15T00:27:44.758Z,100.00
2023-10-15T00:30:15.190Z,100.00
2023-10-15T00:32:44.977Z,100.00
2023-10-15T00:35:13.058Z,100.00
2023-10-15T00:37:47.576Z,100.00
2023-10-15T00:40:18.372Z,100.00
2023-10-15T00:42:47.335Z,100.00
2023-10-15T00:45:16.139Z,100.00
2023-10-15T00:47:44.483Z,100.00
2023-10-15T00:50:12.644Z,100.00
2023-10-15T00:52:44.030Z,100.00
2023-10-15T00:55:18.714Z,100.00
2023-10-15T00:57:48.960Z,100.00
2023-10-15T01:00:34.544Z,100.00
2023-10-15T01:03:08.680Z,100.00
2023-10-15T01:05:46.714Z,100.00
2023-10-15T01:08:18.017Z,100.00
2023-10-15T01:10:50.647Z,100.00
2023-10-15T01:13:22.864Z,100.00
2023-10-15T01:15:55.639Z,100.00
2023-10-15T01:18:23.780Z,100.00
2023-10-15T01:20:51.838Z,100.00
2023-10-15T01:23:30.005Z,100.00
2023-10-15T01:26:00.816Z,100.00
2023-10-15T01:28:37.725Z,100.00
2023-10-15T01:31:07.060Z,100.00
2023-10-15T01:33:47.230Z,100.00
2023-10-15T01:36:19.351Z,100.00
2023-10-15T01:38:47.733Z,100.00
2023-10-15T01:41:17.862Z,100.00
2023-10-15T01:43:47.647Z,100.00
2023-10-15T01:46:26.786Z,100.00
2023-10-15T01:48:54.801Z,100.00
2023-10-15T01:51:23.639Z,100.00
2023-10-15T01:53:52.126Z,100.00
2023-10-15T01:56:24.658Z,100.00
2023-10-15T01:58:53.455Z,100.00
2023-10-15T02:01:33.076Z,100.00
2023-10-15T02:04:01.587Z,100.00
2023-10-15T02:06:31.975Z,100.00
2023-10-15T02:09:00.648Z,100.00
2023-10-15T02:11:30.376Z,100.00
2023-10-15T02:13:58.398Z,100.00
2023-10-15T02:16:34.135Z,100.00
2023-10-15T02:19:02.258Z,100.00
2023-10-15T02:21:36.225Z,100.00
2023-10-15T02:24:10.170Z,100.00
2023-10-15T02:26:40.118Z,100.00
2023-10-15T02:29:22.685Z,100.00
2023-10-15T02:31:50.780Z,100.00
2023-10-15T02:34:18.858Z,100.00
2023-10-15T02:36:48.968Z,100.00
2023-10-15T02:39:16.936Z,100.00
2023-10-15T02:41:47.914Z,100.00
2023-10-15T02:44:17.209Z,100.00
2023-10-15T02:46:51.399Z,100.00
2023-10-15T02:49:19.450Z,100.00
2023-10-15T02:51:49.311Z,100.00
2023-10-15T02:54:29.323Z,100.00
2023-10-15T02:57:01.086Z,100.00
2023-10-15T02:59:31.479Z,100.00
2023-10-15T03:02:08.002Z,100.00
2023-10-15T03:04:39.423Z,100.00
2023-10-15T03:07:20.456Z,100.00
2023-10-15T03:09:52.723Z,100.00
2023-10-15T03:12:22.233Z,100.00
2023-10-15T03:14:50.170Z,100.00
2023-10-15T03:17:26.902Z,100.00
2023-10-15T03:19:56.481Z,100.00
2023-10-15T03:22:26.399Z,100.00
2023-10-15T03:24:57.780Z,100.00
2023-10-15T03:27:28.713Z,100.00
2023-10-15T03:29:57.835Z,100.00
2023-10-15T03:32:32.045Z,100.00
2023-10-15T03:35:06.520Z,100.00
2023-10-15T03:37:39.708Z,100.00
2023-10-15T03:40:15.096Z,100.00
2023-10-15T03:42:45.773Z,100.00
2023-10-15T03:45:18.245Z,100.00
2023-10-15T03:47:48.616Z,100.00
2023-10-15T03:50:16.987Z,100.00
2023-10-15T03:52:46.309Z,100.00
2023-10-15T03:55:14.573Z,100.00
2023-10-15T03:57:44.901Z,100.00
2023-10-15T04:00:18.241Z,100.00
2023-10-15T04:03:02.422Z,100.00
2023-10-15T04:05:33.808Z,100.00
2023-10-15T04:08:02.527Z,100.00
2023-10-15T04:10:35.350Z,100.00
2023-10-15T04:13:09.688Z,100.00
2023-10-15T04:15:37.859Z,100.00
2023-10-15T04:18:06.364Z,100.00
2023-10-15T04:20:37.103Z,100.00
2023-10-15T04:23:05.708Z,100.00
2023-10-15T04:25:34.409Z,100.00
2023-10-15T04:28:12.760Z,100.00
2023-10-15T04:30:41.141Z,100.00
2023-10-15T04:33:12.050Z,100.00
2023-10-15T04:35:40.107Z,100.00
2023-10-15T04:38:09.084Z,100.00
2023-10-15T04:40:49.417Z,100.00
2023-10-15T04:43:19.390Z,100.00
2023-10-15T04:45:47.880Z,100.00
2023-10-15T04:48:17.175Z,100.00
2023-10-15T04:50:46.540Z,100.00
2023-10-15T04:53:17.009Z,100.00
2023-10-15T04:55:45.260Z,100.00
2023-10-15T04:58:13.343Z,100.00
2023-10-15T05:00:42.951Z,100.00
2023-10-15T05:03:11.438Z,100.00
2023-10-15T05:05:39.540Z,100.00
2023-10-15T05:08:12.503Z,100.00
2023-10-15T05:10:46.301Z,100.00
2023-10-15T05:13:15.017Z,100.00
2023-10-15T05:15:46.888Z,100.00
2023-10-15T05:18:16.527Z,100.00
2023-10-15T05:20:45.412Z,100.00
2023-10-15T05:23:14.576Z,100.00
2023-10-15T05:25:42.647Z,100.00
2023-10-15T05:28:15.485Z,100.00
2023-10-15T05:30:45.159Z,100.00
2023-10-15T05:33:13.211Z,100.00
2023-10-15T05:35:41.696Z,100.00
2023-10-15T05:38:11.244Z,100.00
2023-10-15T05:40:39.809Z,100.00
2023-10-15T05:43:08.069Z,100.00
2023-10-15T05:45:36.118Z,100.00
2023-10-15T05:48:06.576Z,100.00
2023-10-15T05:50:34.628Z,100.00
2023-10-15T05:53:02.760Z,100.00
2023-10-15T05:55:33.733Z,100.00
2023-10-15T05:58:01.874Z,100.00
2023-10-15T06:00:30.084Z,100.00
2023-10-15T06:03:00.466Z,100.00
2023-10-15T06:05:29.902Z,100.00
2023-10-15T06:07:57.962Z,100.00
2023-10-15T06:10:26.009Z,100.00
2023-10-15T06:12:54.033Z,100.00
2023-10-15T06:15:24.621Z,100.00
2023-10-15T06:17:53.347Z,100.00
2023-10-15T06:20:21.902Z,100.00
2023-10-15T06:22:56.477Z,100.00
2023-10-15T06:25:26.123Z,100.00
2023-10-15T06:27:54.306Z,98.01
2023-10-15T06:30:24.896Z,96.21
2023-10-15T06:32:53.988Z,92.92
2023-10-15T06:35:23.690Z,91.93
2023-10-15T06:37:56.929Z,87.11
2023-10-15T06:40:25.908Z,88.92
2023-10-15T06:43:01.383Z,90.13
2023-10-15T06:45:29.828Z,85.98
2023-10-15T06:47:57.976Z,85.03
2023-10-15T06:50:27.371Z,85.61
2023-10-15T06:52:57.398Z,82.85
2023-10-15T06:55:25.461Z,78.78
2023-10-15T06:57:54.736Z,74.30
2023-10-15T07:00:26.663Z,69.59
2023-10-15T07:02:56.037Z,66.94
2023-10-15T07:05:27.028Z,65.27
2023-10-15T07:07:58.804Z,63.98
2023-10-15T07:10:27.412Z,62.81
2023-10-15T07:12:55.908Z,59.92
2023-10-15T07:15:25.264Z,59.06
2023-10-15T07:17:53.746Z,58.61
2023-10-15T07:20:23.248Z,58.37
2023-10-15T07:22:52.234Z,59.13
2023-10-15T07:25:21.942Z,61.21
2023-10-15T07:27:51.093Z,60.40
2023-10-15T07:30:21.335Z,60.88
2023-10-15T07:32:51.828Z,62.33
2023-10-15T07:35:19.965Z,63.80
2023-10-15T07:37:49.826Z,64.33
2023-10-15T07:40:19.525Z,63.48
2023-10-15T07:42:49.824Z,62.35
2023-10-15T07:45:18.707Z,62.08
2023-10-15T07:47:46.864Z,63.04
2023-10-15T07:50:18.196Z,63.48
2023-10-15T07:52:46.961Z,62.13
2023-10-15T07:55:15.544Z,60.16
2023-10-15T07:57:43.646Z,60.28
2023-10-15T08:00:16.636Z,59.29
2023-10-15T08:02:46.791Z,58.69
2023-10-15T08:05:15.679Z,57.73
2023-10-15T08:07:44.667Z,56.92
2023-10-15T08:10:12.869Z,56.80
2023-10-15T08:12:40.997Z,55.73
2023-10-15T08:15:10.181Z,54.77
2023-10-15T08:17:39.774Z,55.50
2023-10-15T08:20:10.880Z,49.87
2023-10-15T08:22:42.955Z,51.08
2023-10-15T08:25:14.740Z,49.74
2023-10-15T08:27:45.597Z,49.54
2023-10-15T08:30:15.909Z,48.74
2023-10-15T08:32:46.061Z,46.40
2023-10-15T08:35:15.292Z,45.58
2023-10-15T08:37:43.660Z,44.51
2023-10-15T08:40:17.138Z,44.28
2023-10-15T08:42:51.747Z,44.96
2023-10-15T08:45:23.199Z,43.94
2023-10-15T08:47:52.749Z,42.77
2023-10-15T08:50:22.545Z,42.73
2023-10-15T08:52:53.875Z,42.11
2023-10-15T08:55:24.327Z,42.01
2023-10-15T08:57:55.796Z,42.18
2023-10-15T09:00:33.386Z,42.71
2023-10-15T09:03:03.713Z,42.28
2023-10-15T09:05:34.912Z,41.90
2023-10-15T09:08:08.525Z,42.04
2023-10-15T09:10:37.318Z,40.64
2023-10-15T09:13:06.058Z,38.75
2023-10-15T09:15:34.088Z,40.09
2023-10-15T09:18:03.542Z,39.25
2023-10-15T09:20:34.807Z,37.47
2023-10-15T09:23:04.541Z,37.24
2023-10-15T09:25:32.722Z,37.96
2023-10-15T09:28:00.797Z,39.15
2023-10-15T09:30:29.407Z,38.35
2023-10-15T09:32:58.538Z,36.99
2023-10-15T09:35:29.186Z,36.45
2023-10-15T09:37:58.530Z,35.66
2023-10-15T09:40:32.339Z,35.83
2023-10-15T09:43:01.370Z,36.35
2023-10-15T09:45:32.279Z,36.33
2023-10-15T09:48:00.671Z,36.61
2023-10-15T09:50:33.225Z,34.68
2023-10-15T09:53:11.003Z,35.44
2023-10-15T09:55:39.540Z,37.07
2023-10-15T09:58:10.086Z,35.67
2023-10-15T10:00:50.149Z,32.70
2023-10-15T10:03:31.886Z,31.71
2023-10-15T10:06:10.951Z,28.55
2023-10-15T10:08:47.341Z,27.97
2023-10-15T10:11:24.159Z,26.12
2023-10-15T10:14:01.596Z,26.29
2023-10-15T10:16:29.801Z,24.81
2023-10-15T10:18:57.930Z,26.19
2023-10-15T10:21:31.337Z,26.01
2023-10-15T10:24:00.251Z,25.23
2023-10-15T10:26:29.988Z,24.72
2023-10-15T10:29:00.773Z,24.77
2023-10-15T10:31:31.237Z,25.88
2023-10-15T10:34:03.257Z,26.26
2023-10-15T10:36:33.035Z,25.99
2023-10-15T10:39:02.310Z,24.47
2023-10-15T10:41:35.782Z,24.34
2023-10-15T10:44:18.943Z,25.29
2023-10-15T10:46:53.837Z,24.93
2023-10-15T10:49:29.722Z,24.98
2023-10-15T10:52:15.856Z,26.22
2023-10-15T10:54:44.203Z,26.05
2023-10-15T10:57:12.190Z,25.72
2023-10-15T10:59:41.239Z,25.31
2023-10-15T11:02:12.973Z,24.50
2023-10-15T11:04:41.547Z,24.14
2023-10-15T11:07:12.053Z,25.97
2023-10-15T11:09:40.349Z,27.30
2023-10-15T11:12:10.720Z,28.80
2023-10-15T11:14:39.121Z,28.85
2023-10-15T11:17:09.190Z,29.48
2023-10-15T11:19:37.898Z,28.66
2023-10-15T11:22:05.919Z,28.90
2023-10-15T11:24:35.285Z,28.72
2023-10-15T11:27:08.229Z,28.88
2023-10-15T11:29:36.456Z,28.46
2023-10-15T11:32:07.665Z,28.44
2023-10-15T11:34:36.604Z,27.19
2023-10-15T11:37:07.127Z,27.42
2023-10-15T11:39:43.757Z,26.99
2023-10-15T11:42:12.055Z,26.74
2023-10-15T11:44:43.323Z,27.03
2023-10-15T11:47:13.528Z,27.86
2023-10-15T11:49:44.159Z,29.43
2023-10-15T11:52:15.935Z,28.83
2023-10-15T11:54:51.068Z,30.44
2023-10-15T11:57:23.434Z,30.23
2023-10-15T11:59:55.630Z,30.70
2023-10-15T12:02:25.626Z,30.82
2023-10-15T12:04:58.086Z,31.77
2023-10-15T12:07:27.013Z,32.86
2023-10-15T12:09:56.570Z,33.06
2023-10-15T12:12:24.567Z,33.88
2023-10-15T12:14:52.542Z,35.20
2023-10-15T12:17:20.563Z,35.49
2023-10-15T12:19:50.995Z,36.44
2023-10-15T12:22:25.629Z,37.34
2023-10-15T12:24:53.685Z,38.15
2023-10-15T12:27:23.054Z,38.09
2023-10-15T12:29:52.427Z,38.91
2023-10-15T12:32:28.663Z,39.48
2023-10-15T12:35:11.917Z,39.42
2023-10-15T12:37:40.143Z,39.72
2023-10-15T12:40:12.925Z,40.13
2023-10-15T12:42:42.763Z,40.41
2023-10-15T12:45:14.424Z,39.95
2023-10-15T12:47:42.503Z,39.20
2023-10-15T12:50:15.893Z,39.77
2023-10-15T12:52:44.630Z,39.42
2023-10-15T12:55:12.613Z,40.50
2023-10-15T12:57:42.257Z,39.03
2023-10-15T13:00:18.327Z,39.45
2023-10-15T13:02:46.991Z,39.27
2023-10-15T13:05:15.635Z,39.41
2023-10-15T13:07:44.355Z,38.95
2023-10-15T13:10:14.790Z,40.39
2023-10-15T13:12:44.136Z,40.37
2023-10-15T13:15:14.920Z,41.34
2023-10-15T13:17:42.975Z,41.79
2023-10-15T13:20:13.130Z,41.81
2023-10-15T13:22:41.259Z,41.77
2023-10-15T13:25:09.920Z,41.68
2023-10-15T13:27:39.527Z,41.86
2023-10-15T13:30:14.339Z,42.25
2023-10-15T13:32:42.861Z,42.66
2023-10-15T13:35:12.606Z,42.75
2023-10-15T13:37:41.011Z,43.43
2023-10-15T13:40:11.266Z,44.20
2023-10-15T13:42:39.829Z,43.34
2023-10-15T13:45:11.931Z,43.93
2023-10-15T13:47:39.973Z,44.67
2023-10-15T13:50:10.642Z,44.69
2023-10-15T13:52:39.500Z,45.13
2023-10-15T13:55:08.492Z,45.77
2023-10-15T13:57:38.553Z,45.28
2023-10-15T14:00:12.963Z,45.48
2023-10-15T14:02:42.591Z,46.13
2023-10-15T14:05:10.985Z,46.27
2023-10-15T14:07:39.220Z,46.67
2023-10-15T14:10:08.071Z,47.07
2023-10-15T14:12:36.057Z,49.87
2023-10-15T14:15:04.711Z,48.44
2023-10-15T14:17:34.148Z,49.54
2023-10-15T14:20:07.841Z,49.18
2023-10-15T14:22:35.884Z,49.09
2023-10-15T14:25:03.902Z,50.36
2023-10-15T14:27:31.869Z,49.98
2023-10-15T14:30:01.290Z,49.69
2023-10-15T14:32:29.359Z,49.46
2023-10-15T14:35:00.576Z,50.22
2023-10-15T14:37:28.766Z,52.38
2023-10-15T14:39:56.750Z,51.52
2023-10-15T14:42:24.819Z,53.51
2023-10-15T14:44:52.888Z,53.76
2023-10-15T14:47:20.886Z,54.87
2023-10-15T14:49:48.960Z,56.42
2023-10-15T14:52:18.406Z,57.83
2023-10-15T14:54:46.390Z,59.59
2023-10-15T14:57:16.336Z,60.14
2023-10-15T14:59:44.345Z,61.97
2023-10-15T15:02:15.578Z,63.20
2023-10-15T15:04:43.865Z,65.76
2023-10-15T15:07:12.729Z,67.60
2023-10-15T15:09:44.857Z,68.70
2023-10-15T15:12:13.256Z,70.03
2023-10-15T15:14:41.248Z,70.18
2023-10-15T15:17:09.293Z,71.38
2023-10-15T15:19:38.389Z,72.13
2023-10-15T15:22:07.291Z,72.95
2023-10-15T15:24:35.412Z,74.85
2023-10-15T15:27:04.871Z,76.03
2023-10-15T15:29:32.800Z,76.65
2023-10-15T15:32:00.961Z,78.26
2023-10-15T15:34:29.362Z,80.28
2023-10-15T15:36:57.435Z,81.84
2023-10-15T15:39:26.549Z,82.71
2023-10-15T15:41:54.537Z,84.42
2023-10-15T15:44:24.090Z,85.01
2023-10-15T15:46:52.349Z,86.38
2023-10-15T15:49:22.323Z,87.40
2023-10-15T15:51:51.735Z,88.44
2023-10-15T15:54:21.374Z,90.66
2023-10-15T15:56:49.407Z,92.21
2023-10-15T15:59:19.423Z,94.00
2023-10-15T16:01:49.754Z,94.13
2023-10-15T16:04:17.962Z,94.29
2023-10-15T16:06:46.035Z,95.60
2023-10-15T16:09:14.070Z,95.10
2023-10-15T16:11:42.045Z,95.86
2023-10-15T16:14:10.016Z,96.44
2023-10-15T16:16:38.055Z,97.59
2023-10-15T16:19:07.519Z,98.98
2023-10-15T16:21:35.502Z,99.83
2023-10-15T16:24:04.053Z,100.00
2023-10-15T16:26:35.170Z,100.00
2023-10-15T16:29:03.305Z,100.00
2023-10-15T16:31:32.130Z,100.00
2023-10-15T16:34:00.144Z,100.00
2023-10-15T16:36:29.546Z,100.00
2023-10-15T16:38:57.553Z,100.00
2023-10-15T16:41:25.557Z,100.00
2023-10-15T16:43:53.548Z,100.00
2023-10-15T16:46:22.620Z,100.00
2023-10-15T16:48:50.656Z,100.00
2023-10-15T16:51:25.860Z,100.00
2023-10-15T16:53:55.898Z,100.00
2023-10-15T16:56:24.053Z,100.00
2023-10-15T16:58:52.174Z,100.00
2023-10-15T17:01:21.382Z,100.00
2023-10-15T17:03:49.589Z,100.00
2023-10-15T17:06:17.744Z,100.00
2023-10-15T17:08:45.764Z,100.00
2023-10-15T17:11:15.164Z,100.00
2023-10-15T17:13:43.152Z,100.00
2023-10-15T17:16:11.230Z,100.00
2023-10-15T17:18:39.306Z,100.00
2023-10-15T17:21:07.598Z,100.00
2023-10-15T17:23:36.343Z,100.00
2023-10-15T17:26:04.430Z,100.00
2023-10-15T17:28:33.781Z,100.00
2023-10-15T17:31:01.852Z,100.00
2023-10-15T17:33:29.984Z,100.00
2023-10-15T17:35:58.127Z,100.00
2023-10-15T17:38:26.140Z,100.00
2023-10-15T17:40:54.535Z,100.00
2023-10-15T17:43:22.498Z,100.00
2023-10-15T17:45:52.111Z,100.00
2023-10-15T17:48:20.398Z,100.00
2023-10-15T17:50:54.730Z,100.00
2023-10-15T17:53:23.152Z,100.00
2023-10-15T17:55:51.159Z,100.00
2023-10-15T17:58:19.196Z,100.00
2023-10-15T18:00:47.325Z,100.00
2023-10-15T18:03:16.825Z,100.00
2023-10-15T18:05:50.505Z,100.00
2023-10-15T18:08:18.493Z,100.00
2023-10-15T18:10:46.955Z,100.00
2023-10-15T18:13:15.353Z,100.00
2023-10-15T18:15:43.685Z,100.00
2023-10-15T18:18:11.877Z,100.00
2023-10-15T18:20:41.458Z,100.00
2023-10-15T18:23:10.155Z,100.00
2023-10-15T18:25:38.593Z,100.00
2023-10-15T18:28:09.215Z,100.00
2023-10-15T18:30:37.340Z,100.00
2023-10-15T18:33:06.769Z,100.00
2023-10-15T18:35:34.845Z,100.00
2023-10-15T18:38:04.865Z,100.00
2023-10-15T18:40:32.940Z,100.00
2023-10-15T18:43:00.934Z,100.00
2023-10-15T18:45:28.981Z,100.00
2023-10-15T18:47:57.089Z,100.00
2023-10-15T18:50:25.079Z,100.00
2023-10-15T18:52:53.041Z,100.00
2023-10-15T18:55:22.421Z,100.00
2023-10-15T18:57:52.219Z,100.00
2023-10-15T19:00:20.482Z,100.00
2023-10-15T19:02:48.535Z,100.00
2023-10-15T19:05:16.737Z,100.00
2023-10-15T19:07:44.764Z,100.00
2023-10-15T19:10:13.209Z,100.00
2023-10-15T19:12:42.698Z,100.00
2023-10-15T19:15:13.447Z,100.00
2023-10-15T19:17:41.589Z,100.00
2023-10-15T19:20:11.973Z,100.00
2023-10-15T19:22:40.199Z,100.00
2023-10-15T19:25:11.004Z,100.00
2023-10-15T19:27:39.185Z,100.00
2023-10-15T19:30:10.586Z,100.00
2023-10-15T19:32:38.709Z,100.00
2023-10-15T19:35:11.530Z,100.00
2023-10-15T19:37:40.341Z,100.00
2023-10-15T19:40:11.969Z,100.00
2023-10-15T19:42:40.291Z,100.00
2023-10-15T19:45:10.534Z,100.00
2023-10-15T19:47:38.672Z,100.00
2023-10-15T19:50:08.348Z,100.00
2023-10-15T19:52:36.357Z,100.00
2023-10-15T19:55:05.963Z,100.00
2023-10-15T19:57:35.334Z,100.00
2023-10-15T20:00:06.545Z,100.00
2023-10-15T20:02:39.797Z,100.00
2023-10-15T20:05:09.453Z,100.00
2023-10-15T20:07:38.316Z,100.00
2023-10-15T20:10:07.533Z,100.00
2023-10-15T20:12:35.545Z,100.00
2023-10-15T20:15:03.615Z,100.00
2023-10-15T20:17:31.613Z,100.00
2023-10-15T20:20:02.776Z,100.00
2023-10-15T20:22:30.853Z,100.00
2023-10-15T20:24:58.802Z,100.00
2023-10-15T20:27:26.897Z,100.00
2023-10-15T20:29:54.927Z,100.00
2023-10-15T20:32:29.824Z,100.00
2023-10-15T20:35:11.257Z,100.00
2023-10-15T20:37:41.427Z,100.00
2023-10-15T20:40:14.615Z,100.00
2023-10-15T20:42:43.310Z,100.00
2023-10-15T20:45:12.340Z,100.00
2023-10-15T20:47:40.417Z,100.00
2023-10-15T20:50:10.532Z,100.00
2023-10-15T20:52:38.843Z,100.00
2023-10-15T20:55:07.983Z,100.00
2023-10-15T20:57:36.377Z,100.00
2023-10-15T21:00:11.775Z,100.00
2023-10-15T21:02:39.868Z,100.00
2023-10-15T21:05:11.660Z,100.00
2023-10-15T21:07:40.382Z,100.00
2023-10-15T21:10:10.920Z,100.00
2023-10-15T21:12:39.170Z,100.00
2023-10-15T21:15:10.172Z,100.00
2023-10-15T21:17:39.568Z,100.00
2023-10-15T21:20:12.025Z,100.00
2023-10-15T21:22:41.297Z,100.00
2023-10-15T21:25:11.495Z,100.00
2023-10-15T21:27:39.545Z,100.00
2023-10-15T21:30:08.952Z,100.00
2023-10-15T21:32:37.028Z,100.00
2023-10-15T21:35:05.549Z,100.00
2023-10-15T21:37:35.426Z,100.00
2023-10-15T21:40:03.471Z,100.00
2023-10-15T21:42:31.549Z,100.00
2023-10-15T21:44:59.715Z,100.00
2023-10-15T21:47:27.798Z,100.00
2023-10-15T21:49:55.800Z,100.00
2023-10-15T21:52:23.764Z,100.00
2023-10-15T21:54:53.387Z,100.00
2023-10-15T21:57:21.436Z,100.00
2023-10-15T21:59:49.590Z,100.00
2023-10-15T22:02:18.224Z,100.00
2023-10-15T22:04:46.619Z,100.00
2023-10-15T22:07:14.652Z,100.00
2023-10-15T22:09:42.899Z,100.00
2023-10-15T22:12:12.338Z,100.00
2023-10-15T22:14:46.633Z,100.00
2023-10-15T22:17:15.828Z,99.93
2023-10-15T22:19:44.425Z,100.00
2023-10-15T22:22:12.851Z,99.98
2023-10-15T22:24:42.239Z,99.59
2023-10-15T22:27:15.184Z,100.00
2023-10-15T22:29:44.657Z,100.00
2023-10-15T22:32:12.750Z,100.00
2023-10-15T22:34:41.635Z,100.00
2023-10-15T22:37:09.710Z,100.00
2023-10-15T22:39:38.401Z,100.00
2023-10-15T22:42:08.796Z,98.63
2023-10-15T22:44:37.312Z,97.49
2023-10-15T22:47:07.286Z,98.81
2023-10-15T22:49:35.312Z,98.50
2023-10-15T22:52:03.376Z,99.74
2023-10-15T22:54:32.678Z,99.37
2023-10-15T22:57:00.708Z,99.98
2023-10-15T22:59:29.314Z,100.00
2023-10-15T23:01:57.310Z,100.00
2023-10-15T23:04:27.622Z,100.00
2023-10-15T23:06:56.040Z,100.00
2023-10-15T23:09:25.134Z,100.00
2023-10-15T23:11:53.395Z,100.00
2023-10-15T23:14:22.270Z,100.00
2023-10-15T23:16:50.446Z,100.00
2023-10-15T23:19:23.635Z,100.00
2023-10-15T23:21:59.044Z,100.00
2023-10-15T23:24:29.254Z,100.00
2023-10-15T23:26:57.368Z,100.00
2023-10-15T23:29:26.198Z,100.00
2023-10-15T23:31:54.343Z,100.00
2023-10-15T23:34:24.728Z,100.00
2023-10-15T23:36:56.652Z,100.00
2023-10-15T23:39:24.900Z,100.00
2023-10-15T23:41:53.150Z,100.00
2023-10-15T23:44:22.820Z,100.00
2023-10-15T23:47:01.980Z,100.00
2023-10-15T23:49:36.021Z,100.00
2023-10-15T23:52:06.533Z,100.00
2023-10-15T23:54:36.593Z,100.00
2023-10-15T23:57:05.238Z,100.00
2023-10-15T23:59:33.293Z,100.00
